Time;durP1;ratioP1;P1;durP2;ratioP2;P2;SDS_P1;SDS_P2;PMS_P1;PMS_P2;Temp;Humidity;BMP_temperature;BMP_pressure;BME280_temperature;BME280_humidity;BME280_pressure;Samples;Min_cycle;Max_cycle;Signal;HPM_P1;HPM_P2
2022/08/08 00:02:30;;;;;;;1.95;1.85;;;13.40;99.90;;;;;;5043827;28;20036;-66
2022/08/08 00:05:02;;;;;;;1.27;1.17;;;13.40;99.90;;;;;;5036034;28;20047;-66
2022/08/08 00:07:52;;;;;;;1.83;1.27;;;13.40;99.90;;;;;;5068585;28;20059;-66
2022/08/08 00:10:31;;;;;;;1.52;1.42;;;13.30;99.90;;;;;;5052722;28;20407;-66
2022/08/08 00:13:16;;;;;;;1.15;1.15;;;13.30;99.90;;;;;;5069390;28;20471;-66
2022/08/08 00:16:05;;;;;;;1.25;1.15;;;13.20;99.90;;;;;;5068473;28;20127;-65
2022/08/08 00:19:13;;;;;;;1.38;1.27;;;13.20;99.90;;;;;;5063059;28;20071;-65
2022/08/08 00:22:07;;;;;;;1.33;1.20;;;13.20;99.90;;;;;;4973888;28;20042;-65
2022/08/08 00:24:38;;;;;;;1.55;1.45;;;13.10;99.90;;;;;;4989670;28;20127;-65
2022/08/08 00:27:09;;;;;;;1.70;1.60;;;13.10;99.90;;;;;;5018351;28;20063;-65
2022/08/08 00:29:48;;;;;;;1.77;1.67;;;13.10;99.90;;;;;;5063570;28;20045;-66
2022/08/08 00:32:42;;;;;;;2.35;2.15;;;13.10;99.90;;;;;;5054672;28;20044;-65
2022/08/08 00:35:38;;;;;;;2.75;2.00;;;13.00;99.90;;;;;;5054868;28;20093;-65
2022/08/08 00:38:07;;;;;;;2.15;2.05;;;13.00;99.90;;;;;;5052956;28;20393;-65
2022/08/08 00:40:46;;;;;;;1.92;1.83;;;13.00;99.90;;;;;;5037565;28;20032;-65
2022/08/08 00:43:42;;;;;;;1.77;1.67;;;13.00;99.90;;;;;;5071832;28;20033;-65
2022/08/08 00:46:33;;;;;;;2.20;2.00;;;13.00;99.90;;;;;;5071792;28;20083;-65
2022/08/08 00:49:27;;;;;;;2.10;1.90;;;13.00;99.90;;;;;;5071112;28;20044;-65
2022/08/08 00:52:10;;;;;;;1.70;1.60;;;13.00;99.90;;;;;;5052562;28;21748;-65
2022/08/08 00:54:57;;;;;;;1.77;1.67;;;13.00;99.90;;;;;;5038792;28;20052;-65
2022/08/08 00:57:41;;;;;;;1.45;1.35;;;12.90;99.90;;;;;;5071401;28;20039;-65
2022/08/08 01:00:17;;;;;;;1.55;1.45;;;12.90;99.90;;;;;;5049043;28;20070;-66
2022/08/08 01:03:01;;;;;;;1.77;1.58;;;12.90;99.90;;;;;;5070959;28;20107;-65
2022/08/08 01:05:41;;;;;;;1.83;1.65;;;12.80;99.90;;;;;;5072470;28;20040;-65
2022/08/08 01:08:52;;;;;;;1.77;1.60;;;12.80;99.90;;;;;;5064607;28;20133;-66
2022/08/08 01:11:47;;;;;;;1.83;1.55;;;12.80;99.90;;;;;;5052424;28;20130;-65
2022/08/08 01:14:41;;;;;;;2.08;1.50;;;12.70;99.90;;;;;;5052571;28;20048;-65
2022/08/08 01:17:10;;;;;;;1.60;1.50;;;12.70;99.90;;;;;;5062492;28;20090;-66
2022/08/08 01:19:54;;;;;;;1.58;1.48;;;12.70;99.90;;;;;;5038056;28;20099;-65
2022/08/08 01:22:41;;;;;;;1.88;1.58;;;12.70;99.90;;;;;;5070541;28;20634;-65
2022/08/08 01:26:03;;;;;;;1.70;1.60;;;12.60;99.90;;;;;;5054210;28;20075;-66
2022/08/08 01:29:11;;;;;;;1.77;1.67;;;12.60;99.90;;;;;;4968811;28;20070;-65
2022/08/08 01:32:04;;;;;;;1.95;1.85;;;12.60;99.90;;;;;;4954777;28;20061;-65
2022/08/08 01:34:48;;;;;;;;;;;12.50;99.90;;;;;;5053458;28;20045;-65
2022/08/08 01:37:35;;;;;;;2.30;1.92;;;12.50;99.90;;;;;;5065953;28;19920;-65
2022/08/08 01:40:26;;;;;;;1.60;1.50;;;12.50;99.90;;;;;;5071943;28;20080;-65
2022/08/08 01:43:05;;;;;;;1.80;1.70;;;12.40;99.90;;;;;;5070283;28;20048;-65
2022/08/08 01:45:59;;;;;;;1.88;1.75;;;12.40;99.90;;;;;;5071369;28;20043;-65
2022/08/08 01:48:45;;;;;;;2.10;1.90;;;12.50;99.90;;;;;;5050696;28;20041;-65
2022/08/08 01:51:41;;;;;;;2.17;2.00;;;12.40;99.90;;;;;;5069110;28;20072;-65
2022/08/08 01:54:21;;;;;;;1.80;1.70;;;12.40;99.90;;;;;;5052318;28;20041;-65
2022/08/08 01:57:05;;;;;;;3.33;2.10;;;12.40;99.90;;;;;;5070967;28;20048;-65
2022/08/08 02:00:02;;;;;;;2.53;2.33;;;12.40;99.90;;;;;;5052515;28;20048;-65
2022/08/08 02:02:36;;;;;;;1.98;1.88;;;12.40;99.90;;;;;;5049233;28;20044;-65
2022/08/08 02:05:25;;;;;;;2.15;1.95;;;12.30;99.90;;;;;;5070706;28;20438;-65
2022/08/08 02:08:15;;;;;;;2.00;1.90;;;12.30;99.90;;;;;;5068419;28;20048;-65
2022/08/08 02:11:06;;;;;;;2.05;1.90;;;12.30;99.90;;;;;;5053340;28;20044;-65
2022/08/08 02:13:43;;;;;;;1.80;1.67;;;12.20;99.90;;;;;;5036268;28;20505;-65
2022/08/08 02:16:28;;;;;;;1.50;1.40;;;12.20;99.90;;;;;;5069075;28;20121;-65
2022/08/08 02:19:25;;;;;;;1.50;1.40;;;12.10;99.90;;;;;;5051545;28;20058;-65
2022/08/08 02:25:06;;;;;;;1.63;1.52;;;12.10;99.90;;;;;;5064191;28;20048;-65
2022/08/08 02:27:56;;;;;;;1.85;1.67;;;12.10;99.90;;;;;;5070979;28;20082;-65
2022/08/08 02:30:49;;;;;;;2.33;2.00;;;12.10;99.90;;;;;;5056134;28;20504;-65
2022/08/08 02:33:40;;;;;;;2.00;1.90;;;12.10;99.90;;;;;;5070457;28;20040;-65
2022/08/08 02:36:42;;;;;;;2.10;2.00;;;12.00;99.90;;;;;;5069849;28;20253;-65
2022/08/08 02:39:11;;;;;;;;;;;12.00;99.90;;;;;;5056165;28;20051;-65
2022/08/08 02:42:19;;;;;;;3.10;2.33;;;12.00;99.90;;;;;;5051331;28;20064;-65
2022/08/08 02:45:21;;;;;;;2.65;2.40;;;12.00;99.90;;;;;;5040469;28;20064;-65
2022/08/08 02:48:25;;;;;;;3.63;2.50;;;11.90;99.90;;;;;;5051871;28;20054;-65
2022/08/08 02:51:33;;;;;;;2.50;2.30;;;11.90;99.90;;;;;;5035688;28;20094;-66
2022/08/08 02:54:27;;;;;;;2.75;2.40;;;11.90;99.90;;;;;;5065336;28;20041;-65
2022/08/08 02:57:22;;;;;;;2.95;2.72;;;11.90;99.90;;;;;;5068900;28;20398;-65
2022/08/08 03:00:12;;;;;;;2.40;2.20;;;11.80;99.90;;;;;;5069215;28;20506;-65
2022/08/08 03:02:56;;;;;;;2.25;2.10;;;11.70;99.90;;;;;;5070318;28;20428;-65
2022/08/08 03:05:53;;;;;;;2.45;2.25;;;11.70;99.90;;;;;;5050074;28;20371;-65
2022/08/08 03:08:53;;;;;;;1.90;1.80;;;11.80;99.90;;;;;;5063231;28;20064;-65
2022/08/08 03:11:52;;;;;;;2.63;1.88;;;11.70;99.90;;;;;;5069487;28;20057;-65
2022/08/08 03:14:33;;;;;;;2.20;2.00;;;11.70;99.90;;;;;;5059073;28;20043;-65
2022/08/08 03:17:19;;;;;;;2.28;1.70;;;11.70;99.90;;;;;;5037118;28;20048;-65
2022/08/08 03:20:06;;;;;;;2.20;2.00;;;11.70;99.90;;;;;;5071314;28;20044;-65
2022/08/08 03:22:32;;;;;;;1.73;1.63;;;11.70;99.90;;;;;;5079271;22;20059;-65
2022/08/08 03:25:03;;;;;;;1.85;1.75;;;11.70;99.90;;;;;;5086784;28;20051;-65
2022/08/08 03:27:36;;;;;;;2.00;1.70;;;11.70;99.90;;;;;;5073991;28;20055;-65
2022/08/08 03:30:11;;;;;;;1.83;1.60;;;11.60;99.90;;;;;;5074615;28;20041;-66
2022/08/08 03:35:24;;;;;;;1.73;1.63;;;11.60;99.90;;;;;;5091282;28;20040;-65
2022/08/08 03:37:50;;;;;;;2.85;1.67;;;11.60;99.90;;;;;;5090147;28;20036;-65
2022/08/08 03:40:17;;;;;;;2.05;1.50;;;11.50;99.90;;;;;;5090969;28;20497;-65
2022/08/08 03:42:43;;;;;;;1.70;1.60;;;11.60;99.90;;;;;;5091298;28;20036;-65
2022/08/08 03:45:21;;;;;;;1.30;1.20;;;11.50;99.90;;;;;;5085361;28;20481;-65
2022/08/08 03:47:58;;;;;;;1.75;1.65;;;11.50;99.90;;;;;;5076697;28;20048;-65
2022/08/08 03:50:25;;;;;;;2.47;2.20;;;11.50;99.90;;;;;;5087230;28;20042;-65
2022/08/08 03:52:52;;;;;;;2.53;2.28;;;11.50;99.90;;;;;;5076543;28;20045;-65
2022/08/08 03:55:19;;;;;;;2.65;2.45;;;11.50;99.90;;;;;;5086504;28;20028;-65
2022/08/08 03:57:48;;;;;;;2.25;2.10;;;11.50;99.90;;;;;;5092193;28;20075;-65
2022/08/08 04:00:16;;;;;;;2.17;2.08;;;11.40;99.90;;;;;;5092108;28;20137;-65
2022/08/08 04:02:42;;;;;;;2.10;2.00;;;11.40;99.90;;;;;;5088946;28;20493;-65
2022/08/08 04:05:09;;;;;;;2.15;2.05;;;11.40;99.90;;;;;;5078226;28;20072;-65
2022/08/08 04:07:39;;;;;;;2.03;1.92;;;11.40;99.90;;;;;;5084759;28;20090;-65
2022/08/08 04:10:07;;;;;;;2.05;1.85;;;11.30;99.90;;;;;;5086411;28;20052;-65
2022/08/08 04:12:33;;;;;;;2.10;1.90;;;11.30;99.90;;;;;;5093535;28;20043;-65
2022/08/08 04:14:58;;;;;;;1.83;1.73;;;11.20;99.90;;;;;;5071720;28;20076;-65
2022/08/08 04:17:24;;;;;;;2.40;1.70;;;11.20;99.90;;;;;;5085063;28;20036;-65
2022/08/08 04:19:50;;;;;;;1.60;1.50;;;11.30;99.90;;;;;;5084843;28;20036;-65
2022/08/08 04:22:15;;;;;;;1.65;1.33;;;11.30;99.90;;;;;;5072270;28;20596;-65
2022/08/08 04:24:41;;;;;;;2.30;2.10;;;11.30;99.90;;;;;;5073286;28;20052;-65
2022/08/08 04:27:06;;;;;;;2.10;1.92;;;11.30;99.90;;;;;;5073312;28;20115;-65
2022/08/08 04:29:32;;;;;;;2.20;2.10;;;11.40;99.90;;;;;;5073596;28;20103;-65
2022/08/08 04:31:57;;;;;;;2.30;2.10;;;11.50;99.90;;;;;;5085862;28;20046;-65
2022/08/08 04:34:23;;;;;;;2.83;2.50;;;11.50;99.90;;;;;;5093290;28;20040;-65
2022/08/08 04:36:49;;;;;;;2.45;2.25;;;11.60;99.90;;;;;;5084487;28;20047;-65
2022/08/08 04:39:14;;;;;;;2.20;2.00;;;11.60;99.90;;;;;;5074039;28;20470;-65
2022/08/08 04:41:40;;;;;;;2.60;2.40;;;11.70;99.90;;;;;;5073568;28;20359;-65
2022/08/08 04:44:06;;;;;;;3.33;3.03;;;11.70;99.90;;;;;;5089434;28;20044;-65
2022/08/08 04:46:32;;;;;;;2.45;2.10;;;11.80;99.90;;;;;;5073714;28;20076;-65
2022/08/08 04:48:57;;;;;;;2.88;2.58;;;11.90;99.90;;;;;;5087615;28;20080;-65
2022/08/08 04:51:23;;;;;;;2.90;2.60;;;11.90;99.90;;;;;;5071640;28;20046;-65
2022/08/08 04:53:49;;;;;;;3.25;1.95;;;11.90;99.90;;;;;;5074226;28;20047;-65
2022/08/08 04:56:16;;;;;;;2.47;1.92;;;12.00;99.90;;;;;;5088208;28;20040;-66
2022/08/08 04:58:42;;;;;;;3.42;1.85;;;12.10;99.90;;;;;;5091974;28;20040;-65
2022/08/08 05:01:08;;;;;;;2.63;2.03;;;12.20;99.90;;;;;;5090852;28;20047;-65
2022/08/08 05:03:33;;;;;;;2.53;2.10;;;12.20;99.90;;;;;;5074480;28;20033;-65
2022/08/08 05:05:59;;;;;;;2.30;2.10;;;12.20;99.90;;;;;;5077501;28;20039;-65
2022/08/08 05:08:25;;;;;;;2.17;1.80;;;12.30;99.90;;;;;;5093674;28;20457;-65
2022/08/08 05:10:51;;;;;;;2.25;2.00;;;12.30;99.90;;;;;;5083383;28;20065;-65
2022/08/08 05:13:17;;;;;;;2.80;2.30;;;12.50;99.90;;;;;;5089307;28;20047;-65
2022/08/08 05:15:43;;;;;;;2.95;2.75;;;12.60;99.90;;;;;;5093197;28;20043;-65
2022/08/08 05:18:08;;;;;;;2.67;2.40;;;12.60;99.90;;;;;;5089517;28;20044;-65
2022/08/08 05:20:34;;;;;;;2.60;2.40;;;12.60;99.90;;;;;;5091091;28;20040;-65
2022/08/08 05:23:00;;;;;;;3.75;3.25;;;12.70;99.90;;;;;;5093139;28;20048;-65
2022/08/08 05:25:25;;;;;;;3.67;3.28;;;12.70;99.90;;;;;;5078156;28;20060;-65
2022/08/08 05:27:52;;;;;;;3.50;3.03;;;12.70;99.90;;;;;;5073539;28;20138;-65
2022/08/08 05:30:17;;;;;;;3.33;3.00;;;12.80;99.90;;;;;;5083792;28;20047;-65
2022/08/08 05:32:43;;;;;;;3.05;2.78;;;12.80;99.90;;;;;;5078697;28;20068;-65
2022/08/08 05:35:13;;;;;;;2.80;2.60;;;13.00;99.90;;;;;;5088414;28;20036;-65
2022/08/08 05:37:45;;;;;;;3.25;2.95;;;13.10;99.90;;;;;;5063990;28;20145;-65
2022/08/08 05:40:12;;;;;;;3.97;3.28;;;13.20;99.90;;;;;;5092521;28;20032;-66
2022/08/08 05:42:44;;;;;;;3.92;3.00;;;13.40;99.90;;;;;;5091080;28;20071;-65
2022/08/08 05:45:12;;;;;;;3.55;3.25;;;13.50;99.90;;;;;;5081022;28;20044;-65
2022/08/08 05:47:39;;;;;;;3.58;3.25;;;13.70;99.90;;;;;;5082440;28;20047;-65
2022/08/08 05:50:05;;;;;;;3.30;3.00;;;13.80;99.90;;;;;;5074898;28;20333;-66
2022/08/08 05:52:34;;;;;;;3.75;3.40;;;13.80;99.90;;;;;;5090861;28;20051;-65
2022/08/08 05:55:04;;;;;;;4.38;3.58;;;14.00;99.90;;;;;;5092030;28;20661;-66
2022/08/08 05:57:33;;;;;;;4.68;3.42;;;14.00;99.90;;;;;;5092707;28;20169;-66
2022/08/08 06:00:03;;;;;;;3.97;3.42;;;14.10;99.90;;;;;;5076567;28;20032;-66
2022/08/08 06:05:18;;;;;;;6.18;3.67;;;14.40;99.90;;;;;;5085729;28;20048;-65
2022/08/08 06:07:47;;;;;;;7.40;3.15;;;14.60;99.90;;;;;;5086959;28;20063;-66
2022/08/08 06:10:13;;;;;;;3.30;2.72;;;;;;;;;;5074154;28;20389;-65
2022/08/08 06:12:40;;;;;;;3.95;2.70;;;17.50;99.90;;;;;;5079669;28;20046;-66
2022/08/08 06:15:08;;;;;;;3.90;2.88;;;19.10;99.90;;;;;;5070582;28;20047;-67
2022/08/08 06:17:36;;;;;;;6.75;2.92;;;20.60;99.90;;;;;;5081056;28;20101;-66
2022/08/08 06:20:08;;;;;;;3.45;2.92;;;21.80;99.90;;;;;;5075933;28;20085;-67
2022/08/08 06:22:33;;;;;;;3.22;2.72;;;22.70;99.80;;;;;;5081813;28;20079;-66
2022/08/08 06:24:59;;;;;;;2.58;2.30;;;23.70;98.60;;;;;;5081006;28;20091;-66
2022/08/08 06:27:39;;;;;;;3.70;2.65;;;24.70;97.40;;;;;;5090955;28;20055;-66
2022/08/08 06:30:10;;;;;;;2.85;2.10;;;25.60;93.10;;;;;;5091387;28;20040;-66
2022/08/08 06:32:48;;;;;;;3.67;2.42;;;25.90;92.60;;;;;;5068896;28;20450;-66
2022/08/08 06:35:15;;;;;;;3.60;2.10;;;25.90;91.60;;;;;;5078587;28;20040;-67
2022/08/08 06:37:45;;;;;;;3.33;2.30;;;25.10;92.10;;;;;;5088095;28;20039;-66
2022/08/08 06:40:13;;;;;;;3.17;2.20;;;24.20;91.90;;;;;;5088240;28;20048;-66
2022/08/08 06:42:45;;;;;;;3.70;2.35;;;23.40;93.40;;;;;;5088665;28;20039;-66
2022/08/08 06:45:11;;;;;;;;;;;22.70;94.20;;;;;;5089264;28;20091;-66
2022/08/08 06:47:37;;;;;;;5.80;2.55;;;22.40;94.90;;;;;;5083771;28;20006;-66
2022/08/08 06:50:04;;;;;;;3.28;2.20;;;22.50;95.70;;;;;;5061425;28;20135;-66
2022/08/08 06:52:31;;;;;;;3.85;2.28;;;23.40;95.50;;;;;;5085829;28;20508;-66
2022/08/08 06:54:59;;;;;;;4.57;2.30;;;24.80;94.50;;;;;;5087749;28;20521;-66
2022/08/08 06:57:25;;;;;;;2.97;2.03;;;26.10;93.40;;;;;;5081136;28;20048;-67
2022/08/08 06:59:52;;;;;;;5.53;2.40;;;27.30;92.50;;;;;;5072577;28;20052;-66
2022/08/08 07:02:26;;;;;;;6.00;2.20;;;27.40;90.10;;;;;;5088889;28;20044;-67
2022/08/08 07:05:01;;;;;;;5.45;2.28;;;28.30;90.30;;;;;;5091481;28;20044;-66
2022/08/08 07:07:45;;;;;;;4.93;1.77;;;28.00;85.20;;;;;;5090303;28;20071;-67
2022/08/08 07:10:11;;;;;;;6.05;2.13;;;28.10;87.40;;;;;;5085956;28;20637;-66
2022/08/08 07:12:45;;;;;;;3.85;1.80;;;28.10;85.00;;;;;;5082410;28;20043;-66
2022/08/08 07:15:13;;;;;;;4.45;1.63;;;27.80;86.60;;;;;;5089829;28;20036;-66
2022/08/08 07:17:46;;;;;;;5.10;1.55;;;27.60;88.80;;;;;;5090247;28;20427;-67
2022/08/08 07:20:21;;;;;;;5.82;1.85;;;26.90;87.00;;;;;;5081408;28;20040;-66
2022/08/08 07:23:09;;;;;;;4.43;1.60;;;26.20;89.20;;;;;;5073350;28;20391;-67
2022/08/08 07:25:38;;;;;;;6.13;1.95;;;25.90;90.30;;;;;;5080341;28;20127;-67
2022/08/08 07:28:12;;;;;;;5.47;1.98;;;25.90;90.70;;;;;;5079645;28;20486;-67
2022/08/08 07:30:39;;;;;;;5.32;1.80;;;26.30;87.70;;;;;;5087517;28;20102;-66
2022/08/08 07:33:05;;;;;;;3.88;1.83;;;26.60;88.50;;;;;;5086799;28;20051;-67
2022/08/08 07:35:31;;;;;;;6.05;1.60;;;26.30;87.60;;;;;;5084464;28;20399;-68
2022/08/08 07:37:57;;;;;;;4.35;1.65;;;26.40;89.10;;;;;;5084243;28;20058;-68
2022/08/08 07:40:25;;;;;;;4.30;1.33;;;27.00;88.00;;;;;;5093394;28;20071;-68
2022/08/08 07:42:52;;;;;;;3.38;1.30;;;27.90;86.30;;;;;;5094756;28;20032;-68
2022/08/08 07:45:21;;;;;;;3.70;1.60;;;27.60;84.80;;;;;;5093803;28;20075;-68
2022/08/08 07:47:47;;;;;;;2.47;1.27;;;28.10;83.00;;;;;;5093843;28;20051;-68
2022/08/08 07:50:13;;;;;;;3.40;1.33;;;28.50;81.30;;;;;;5094089;28;20659;-68
2022/08/08 07:52:43;;;;;;;3.22;1.27;;;28.30;78.00;;;;;;5091368;28;20050;-68
2022/08/08 07:55:23;;;;;;;4.90;1.35;;;27.90;80.30;;;;;;5094990;28;20050;-68
2022/08/08 07:58:22;;;;;;;4.93;1.63;;;27.50;79.60;;;;;;5057017;28;20428;-68
2022/08/08 08:00:50;;;;;;;3.58;1.20;;;26.40;83.20;;;;;;5073598;28;20059;-68
2022/08/08 08:03:21;;;;;;;7.72;1.40;;;26.20;85.00;;;;;;5073573;28;20040;-68
2022/08/08 08:05:50;;;;;;;2.85;1.20;;;25.80;86.30;;;;;;5074625;28;20047;-68
2022/08/08 08:08:18;;;;;;;4.70;1.30;;;25.60;86.50;;;;;;5073368;28;20049;-68
2022/08/08 08:10:46;;;;;;;2.63;0.98;;;25.30;85.40;;;;;;5091406;28;20615;-68
2022/08/08 08:13:24;;;;;;;3.63;1.15;;;25.00;87.10;;;;;;5093769;28;20126;-68
2022/08/08 08:15:57;;;;;;;4.10;1.13;;;24.60;87.40;;;;;;5093199;28;20572;-68
2022/08/08 08:18:23;;;;;;;2.97;0.93;;;24.40;89.80;;;;;;5093291;28;20040;-69
2022/08/08 08:20:52;;;;;;;2.63;1.00;;;24.40;89.80;;;;;;5094702;28;20036;-68
2022/08/08 08:23:18;;;;;;;3.58;1.23;;;24.40;89.50;;;;;;5093084;28;20052;-68
2022/08/08 08:25:44;;;;;;;3.13;1.17;;;24.50;87.80;;;;;;5091960;28;20051;-68
2022/08/08 08:28:09;;;;;;;3.90;1.00;;;24.60;87.80;;;;;;5093120;28;20040;-68
2022/08/08 08:30:37;;;;;;;2.45;1.00;;;24.50;87.40;;;;;;5092967;28;20097;-68
2022/08/08 08:33:02;;;;;;;3.65;1.40;;;24.40;88.50;;;;;;5094559;28;20130;-68
2022/08/08 08:35:28;;;;;;;4.57;0.90;;;23.80;90.10;;;;;;5093024;28;20024;-68
2022/08/08 08:37:53;;;;;;;3.20;1.25;;;23.90;87.60;;;;;;5094321;28;20039;-68
2022/08/08 08:40:20;;;;;;;2.50;0.90;;;23.90;89.60;;;;;;5092783;28;20043;-67
2022/08/08 08:42:47;;;;;;;3.55;1.17;;;23.80;86.30;;;;;;5091811;28;20036;-67
2022/08/08 08:45:13;;;;;;;2.78;1.10;;;23.60;88.00;;;;;;5094221;28;20032;-68
2022/08/08 08:47:42;;;;;;;2.67;1.00;;;23.40;88.80;;;;;;5092713;28;20363;-68
2022/08/08 08:50:08;;;;;;;2.75;1.13;;;23.00;89.90;;;;;;5094015;28;20040;-68
2022/08/08 08:52:40;;;;;;;2.92;1.02;;;22.80;89.70;;;;;;5092939;28;20378;-68
2022/08/08 08:55:07;;;;;;;;;;;22.60;90.50;;;;;;5094390;28;20054;-68
2022/08/08 08:57:33;;;;;;;1.88;1.00;;;22.30;92.40;;;;;;5094029;28;20010;-67
2022/08/08 09:00:00;;;;;;;2.97;1.08;;;22.30;90.90;;;;;;5091433;28;20123;-68
2022/08/08 09:02:27;;;;;;;2.50;1.02;;;21.90;92.90;;;;;;5087943;28;20048;-64
2022/08/08 09:04:58;;;;;;;2.38;1.02;;;21.70;93.10;;;;;;5083176;28;20047;-63
2022/08/08 09:07:25;;;;;;;2.55;1.00;;;21.90;91.30;;;;;;5085283;28;20048;-63
2022/08/08 09:09:53;;;;;;;3.97;0.93;;;22.10;91.50;;;;;;5083534;28;20044;-64
2022/08/08 09:12:22;;;;;;;2.63;1.00;;;22.40;91.30;;;;;;5083193;28;20035;-64
2022/08/08 09:14:50;;;;;;;2.97;1.05;;;22.50;91.40;;;;;;5083198;28;20044;-63
2022/08/08 09:17:17;;;;;;;5.57;1.33;;;22.50;92.00;;;;;;5078221;28;20132;-64
2022/08/08 09:19:44;;;;;;;2.97;0.80;;;22.40;90.40;;;;;;5082863;28;20090;-63
2022/08/08 09:22:12;;;;;;;2.08;1.02;;;22.10;91.10;;;;;;5087916;28;20093;-63
2022/08/08 09:24:38;;;;;;;2.08;0.70;;;22.50;90.70;;;;;;5092128;28;20052;-64
2022/08/08 09:27:11;;;;;;;2.22;0.95;;;22.70;90.70;;;;;;5090179;28;20040;-64
2022/08/08 09:30:04;;;;;;;3.60;0.90;;;23.00;90.30;;;;;;5092611;28;20044;-64
2022/08/08 09:32:34;;;;;;;2.47;0.70;;;23.10;90.10;;;;;;5091992;28;20051;-64
2022/08/08 09:35:01;;;;;;;2.83;0.98;;;23.10;89.50;;;;;;5093021;28;20032;-63
2022/08/08 09:37:29;;;;;;;4.00;0.95;;;23.30;88.70;;;;;;5081321;28;20127;-64
2022/08/08 09:40:09;;;;;;;2.20;0.80;;;23.60;86.90;;;;;;5090990;28;20043;-64
2022/08/08 09:42:37;;;;;;;1.95;0.80;;;24.00;85.60;;;;;;5091537;28;20113;-64
2022/08/08 09:45:20;;;;;;;0.98;0.60;;;24.30;85.10;;;;;;5085220;28;20052;-64
2022/08/08 09:47:46;;;;;;;1.95;0.68;;;24.70;83.50;;;;;;5071444;28;20720;-64
2022/08/08 09:50:15;;;;;;;1.25;0.60;;;25.00;81.20;;;;;;5090876;28;20039;-63
2022/08/08 09:52:49;;;;;;;2.05;0.70;;;25.20;80.00;;;;;;5091902;28;20508;-64
2022/08/08 09:55:15;;;;;;;1.70;0.80;;;24.90;79.50;;;;;;5077939;28;20382;-64
2022/08/08 09:57:45;;;;;;;1.35;0.60;;;24.20;81.30;;;;;;5079648;28;20458;-64
2022/08/08 10:00:14;;;;;;;1.77;0.83;;;24.30;81.50;;;;;;5075197;28;20486;-64
2022/08/08 10:02:47;;;;;;;2.38;0.60;;;24.10;82.50;;;;;;5074760;28;20096;-64
2022/08/08 10:05:18;;;;;;;2.05;0.82;;;24.10;82.80;;;;;;5073769;28;20051;-64
2022/08/08 10:07:49;;;;;;;1.35;0.82;;;23.70;82.30;;;;;;5080006;28;20466;-62
2022/08/08 10:10:23;;;;;;;2.72;0.90;;;23.40;84.50;;;;;;5090167;28;20556;-62
2022/08/08 10:12:49;;;;;;;1.67;0.80;;;23.50;85.10;;;;;;5083673;28;20080;-61
2022/08/08 10:15:15;;;;;;;2.17;0.60;;;23.50;84.50;;;;;;5077281;28;20051;-62
2022/08/08 10:17:48;;;;;;;1.73;0.73;;;23.30;86.00;;;;;;5072170;28;20044;-62
2022/08/08 10:20:15;;;;;;;1.33;0.80;;;23.00;85.90;;;;;;5071309;28;20044;-62
2022/08/08 10:22:47;;;;;;;1.25;0.55;;;23.00;86.40;;;;;;5087617;28;20044;-62
2022/08/08 10:25:19;;;;;;;1.20;0.70;;;23.00;86.50;;;;;;5071906;28;20056;-64
2022/08/08 10:27:49;;;;;;;0.90;0.60;;;23.00;86.90;;;;;;5073715;28;20036;-63
2022/08/08 10:30:16;;;;;;;1.27;0.70;;;23.00;87.60;;;;;;5087961;28;20181;-64
2022/08/08 10:32:48;;;;;;;1.42;0.90;;;23.10;87.10;;;;;;5090541;28;20119;-63
2022/08/08 10:35:16;;;;;;;2.03;0.85;;;23.10;88.30;;;;;;5091312;28;20405;-63
2022/08/08 10:37:51;;;;;;;3.55;1.08;;;23.10;89.50;;;;;;5077142;28;20481;-63
2022/08/08 10:40:18;;;;;;;2.65;0.85;;;23.10;90.00;;;;;;5076672;28;20048;-63
2022/08/08 10:42:45;;;;;;;3.42;0.90;;;23.10;87.80;;;;;;5086206;28;20032;-63
2022/08/08 10:45:12;;;;;;;1.25;0.82;;;23.10;87.50;;;;;;5080416;28;20044;-63
2022/08/08 10:47:38;;;;;;;2.67;0.90;;;23.10;87.50;;;;;;5080383;28;20040;-64
2022/08/08 10:50:06;;;;;;;2.75;0.90;;;23.10;88.60;;;;;;5086585;28;20092;-64
2022/08/08 10:52:34;;;;;;;1.23;0.63;;;23.00;88.70;;;;;;5085139;28;20035;-64
2022/08/08 10:55:12;;;;;;;3.15;1.10;;;22.90;88.00;;;;;;5089677;28;20043;-63
2022/08/08 10:57:40;;;;;;;1.23;0.88;;;22.90;90.00;;;;;;5091430;28;20059;-64
2022/08/08 11:00:07;;;;;;;2.63;0.90;;;23.10;89.50;;;;;;5091484;28;20050;-63
2022/08/08 11:02:33;;;;;;;1.75;0.80;;;23.40;88.50;;;;;;5090305;28;20517;-63
2022/08/08 11:05:02;;;;;;;1.92;0.65;;;23.60;87.60;;;;;;5090516;28;20036;-64
2022/08/08 11:07:33;;;;;;;2.22;0.82;;;23.80;85.30;;;;;;5085698;28;20111;-63
2022/08/08 11:10:01;;;;;;;1.95;1.00;;;23.50;87.50;;;;;;5089681;28;20044;-63
2022/08/08 11:12:26;;;;;;;2.88;0.90;;;23.70;87.80;;;;;;5080971;28;20056;-63
2022/08/08 11:14:59;;;;;;;1.67;0.80;;;23.90;86.90;;;;;;5081997;28;20477;-63
2022/08/08 11:17:27;;;;;;;1.10;0.80;;;24.00;87.60;;;;;;5086456;28;20371;-63
2022/08/08 11:19:53;;;;;;;2.35;0.82;;;24.20;85.90;;;;;;5091475;28;20028;-64
2022/08/08 11:22:26;;;;;;;2.58;0.80;;;24.40;84.10;;;;;;5088294;28;20473;-63
2022/08/08 11:24:56;;;;;;;1.33;0.70;;;24.40;85.00;;;;;;5086289;28;20134;-63
2022/08/08 11:27:24;;;;;;;1.58;0.80;;;24.50;84.20;;;;;;5084796;28;20116;-64
2022/08/08 11:29:54;;;;;;;4.60;1.13;;;24.40;85.90;;;;;;5089991;28;20059;-64
2022/08/08 11:32:24;;;;;;;1.75;0.75;;;24.10;85.90;;;;;;5091267;28;20113;-64
2022/08/08 11:34:54;;;;;;;1.63;0.80;;;24.20;85.00;;;;;;5088949;28;20040;-63
2022/08/08 11:37:22;;;;;;;3.20;1.10;;;24.00;86.00;;;;;;5090875;28;20492;-64
2022/08/08 11:39:49;;;;;;;2.08;0.73;;;24.00;86.60;;;;;;5086512;28;20037;-64
2022/08/08 11:42:16;;;;;;;3.15;0.90;;;24.00;85.70;;;;;;5072290;28;20082;-63
2022/08/08 11:44:44;;;;;;;1.83;0.80;;;23.90;87.70;;;;;;5088379;28;20039;-64
2022/08/08 11:47:10;;;;;;;2.35;0.95;;;23.90;88.90;;;;;;5090596;28;20050;-64
2022/08/08 11:49:38;;;;;;;2.03;0.82;;;23.80;87.60;;;;;;5080104;28;20043;-64
2022/08/08 11:52:05;;;;;;;2.05;0.70;;;23.80;88.30;;;;;;5086363;28;20032;-63
2022/08/08 11:54:34;;;;;;;2.67;0.80;;;23.70;87.50;;;;;;5077839;28;20539;-64
2022/08/08 11:57:09;;;;;;;1.98;0.60;;;23.60;88.10;;;;;;5074616;28;20525;-68
2022/08/08 11:59:36;;;;;;;2.53;0.77;;;23.50;89.00;;;;;;5073175;28;20044;-68
2022/08/08 12:02:05;;;;;;;1.23;0.68;;;23.50;88.20;;;;;;5079487;28;20047;-67
2022/08/08 12:04:31;;;;;;;0.80;0.50;;;23.30;89.80;;;;;;5074993;28;20035;-68
2022/08/08 12:07:07;;;;;;;2.28;0.80;;;23.20;90.10;;;;;;5076243;28;20044;-68
2022/08/08 12:09:34;;;;;;;3.55;0.77;;;22.90;90.30;;;;;;5073672;28;20105;-68
2022/08/08 12:12:00;;;;;;;1.83;0.80;;;22.80;90.70;;;;;;5076573;28;20075;-67
2022/08/08 12:14:26;;;;;;;2.70;0.80;;;22.80;90.70;;;;;;5075462;28;20035;-68
2022/08/08 12:16:52;;;;;;;1.80;0.93;;;22.80;90.90;;;;;;5079538;28;20470;-67
2022/08/08 12:19:19;;;;;;;1.33;0.77;;;22.80;91.10;;;;;;5083188;28;20051;-67
2022/08/08 12:21:45;;;;;;;3.13;0.90;;;22.80;91.00;;;;;;5081517;28;20033;-68
2022/08/08 12:24:14;;;;;;;2.03;0.90;;;22.80;90.90;;;;;;5087675;28;20036;-68
2022/08/08 12:26:45;;;;;;;1.77;0.80;;;22.90;90.10;;;;;;5092199;28;20127;-68
2022/08/08 12:29:31;;;;;;;2.03;0.70;;;22.90;90.90;;;;;;5088162;28;20147;-67
2022/08/08 12:32:02;;;;;;;2.10;0.80;;;22.90;91.00;;;;;;5089580;28;20141;-67
2022/08/08 12:34:43;;;;;;;1.92;0.85;;;23.00;90.50;;;;;;5092711;28;20044;-67
2022/08/08 12:37:20;;;;;;;1.63;0.80;;;23.00;90.80;;;;;;5089040;28;20482;-67
2022/08/08 12:39:45;;;;;;;1.95;0.63;;;23.10;90.90;;;;;;5089977;28;20508;-68
2022/08/08 12:42:11;;;;;;;2.70;1.00;;;23.10;90.60;;;;;;5088005;28;20036;-67
2022/08/08 12:44:39;;;;;;;1.33;0.60;;;23.20;90.20;;;;;;5092470;28;20036;-67
2022/08/08 12:47:06;;;;;;;1.73;0.70;;;23.20;90.40;;;;;;5078943;28;20042;-67
2022/08/08 12:49:33;;;;;;;4.47;1.05;;;23.20;90.30;;;;;;5091907;28;20048;-68
2022/08/08 12:52:00;;;;;;;3.38;1.08;;;23.10;90.70;;;;;;5076328;28;20053;-67
2022/08/08 12:54:31;;;;;;;2.22;1.20;;;23.20;90.30;;;;;;5074058;28;20079;-67
2022/08/08 12:56:58;;;;;;;1.83;0.85;;;23.20;90.20;;;;;;5091109;28;20040;-67
2022/08/08 12:59:25;;;;;;;3.20;1.17;;;23.10;90.80;;;;;;5090634;28;20531;-68
2022/08/08 13:01:58;;;;;;;3.30;1.10;;;23.00;91.10;;;;;;5086958;28;20075;-67
2022/08/08 13:04:29;;;;;;;1.92;0.90;;;23.00;91.20;;;;;;5090243;28;20032;-67
2022/08/08 13:07:04;;;;;;;1.55;0.88;;;23.00;91.10;;;;;;5085072;28;20056;-68
2022/08/08 13:09:37;;;;;;;1.80;0.82;;;23.10;91.40;;;;;;5090840;28;20498;-68
2022/08/08 13:12:18;;;;;;;2.70;1.20;;;23.10;91.40;;;;;;5089159;28;20534;-68
2022/08/08 13:14:46;;;;;;;4.07;1.00;;;23.20;91.50;;;;;;5090283;28;20047;-68
2022/08/08 13:17:13;;;;;;;1.63;0.90;;;23.30;91.70;;;;;;5086224;28;20343;-68
2022/08/08 13:19:39;;;;;;;3.28;1.08;;;23.40;91.40;;;;;;5092503;28;20032;-68
2022/08/08 13:22:06;;;;;;;2.78;1.10;;;23.50;90.40;;;;;;5092832;28;20040;-68
2022/08/08 13:24:35;;;;;;;2.95;0.98;;;23.50;90.70;;;;;;5086880;28;20048;-68
2022/08/08 13:27:09;;;;;;;2.45;0.90;;;23.40;90.80;;;;;;5081951;28;20090;-68
2022/08/08 13:29:45;;;;;;;2.50;0.82;;;23.50;90.30;;;;;;5089017;28;20497;-68